sensor_id;sensor_type;location;lat;lon;timestamp;P1;durP1;ratioP1;P2;durP2;ratioP2
29906;SDS011;16776;50.958;10.994;2024-02-21T00:02:18;3.00;;;1.45;;
29906;SDS011;16776;50.958;10.994;2024-02-21T00:04:44;5.45;;;1.55;;
29906;SDS011;16776;50.958;10.994;2024-02-21T00:07:11;3.00;;;1.55;;
29906;SDS011;16776;50.958;10.994;2024-02-21T00:09:39;3.60;;;1.45;;
29906;SDS011;16776;50.958;10.994;2024-02-21T00:12:06;5.13;;;1.50;;
29906;SDS011;16776;50.958;10.994;2024-02-21T00:14:33;3.15;;;1.80;;
29906;SDS011;16776;50.958;10.994;2024-02-21T00:16:59;4.93;;;1.50;;
29906;SDS011;16776;50.958;10.994;2024-02-21T00:19:26;2.75;;;1.10;;
29906;SDS011;16776;50.958;10.994;2024-02-21T00:21:53;4.25;;;1.50;;
29906;SDS011;16776;50.958;10.994;2024-02-21T00:24:19;3.00;;;1.80;;
29906;SDS011;16776;50.958;10.994;2024-02-21T00:26:47;6.25;;;1.75;;
29906;SDS011;16776;50.958;10.994;2024-02-21T00:29:14;5.93;;;2.17;;
29906;SDS011;16776;50.958;10.994;2024-02-21T00:31:40;5.43;;;2.00;;
29906;SDS011;16776;50.958;10.994;2024-02-21T00:34:07;5.45;;;2.03;;
29906;SDS011;16776;50.958;10.994;2024-02-21T00:36:33;3.30;;;1.55;;
29906;SDS011;16776;50.958;10.994;2024-02-21T00:39:00;4.63;;;1.70;;
29906;SDS011;16776;50.958;10.994;2024-02-21T00:41:26;5.95;;;1.40;;
29906;SDS011;16776;50.958;10.994;2024-02-21T00:43:54;3.65;;;1.67;;
29906;SDS011;16776;50.958;10.994;2024-02-21T00:46:21;6.72;;;2.13;;
29906;SDS011;16776;50.958;10.994;2024-02-21T00:48:48;8.38;;;2.22;;
29906;SDS011;16776;50.958;10.994;2024-02-21T00:51:14;3.50;;;1.52;;
29906;SDS011;16776;50.958;10.994;2024-02-21T00:53:41;6.43;;;1.83;;
29906;SDS011;16776;50.958;10.994;2024-02-21T00:56:08;2.97;;;1.70;;
29906;SDS011;16776;50.958;10.994;2024-02-21T00:58:35;6.78;;;1.83;;
29906;SDS011;16776;50.958;10.994;2024-02-21T01:01:03;5.50;;;1.60;;
29906;SDS011;16776;50.958;10.994;2024-02-21T01:03:29;3.30;;;1.95;;
29906;SDS011;16776;50.958;10.994;2024-02-21T01:05:56;4.50;;;1.92;;
29906;SDS011;16776;50.958;10.994;2024-02-21T01:08:23;3.10;;;1.40;;
29906;SDS011;16776;50.958;10.994;2024-02-21T01:10:49;3.83;;;2.05;;
29906;SDS011;16776;50.958;10.994;2024-02-21T01:13:16;5.40;;;2.00;;
29906;SDS011;16776;50.958;10.994;2024-02-21T01:15:42;2.97;;;1.52;;
29906;SDS011;16776;50.958;10.994;2024-02-21T01:18:10;4.00;;;1.50;;
29906;SDS011;16776;50.958;10.994;2024-02-21T01:20:37;4.15;;;1.65;;
29906;SDS011;16776;50.958;10.994;2024-02-21T01:23:03;6.18;;;1.40;;
29906;SDS011;16776;50.958;10.994;2024-02-21T01:25:30;3.08;;;2.00;;
29906;SDS011;16776;50.958;10.994;2024-02-21T01:27:57;3.58;;;1.90;;
29906;SDS011;16776;50.958;10.994;2024-02-21T01:30:23;2.95;;;1.55;;
29906;SDS011;16776;50.958;10.994;2024-02-21T01:32:50;4.05;;;1.63;;
29906;SDS011;16776;50.958;10.994;2024-02-21T01:35:18;7.63;;;2.20;;
29906;SDS011;16776;50.958;10.994;2024-02-21T01:37:44;3.20;;;1.58;;
29906;SDS011;16776;50.958;10.994;2024-02-21T01:40:11;7.30;;;1.67;;
29906;SDS011;16776;50.958;10.994;2024-02-21T01:42:38;4.53;;;1.85;;
29906;SDS011;16776;50.958;10.994;2024-02-21T01:45:06;6.38;;;2.42;;
29906;SDS011;16776;50.958;10.994;2024-02-21T01:47:33;5.97;;;2.00;;
29906;SDS011;16776;50.958;10.994;2024-02-21T01:50:00;3.13;;;1.63;;
29906;SDS011;16776;50.958;10.994;2024-02-21T01:52:28;1.92;;;1.40;;
29906;SDS011;16776;50.958;10.994;2024-02-21T01:54:57;6.78;;;2.45;;
29906;SDS011;16776;50.958;10.994;2024-02-21T01:57:24;5.93;;;2.03;;
29906;SDS011;16776;50.958;10.994;2024-02-21T01:59:51;3.13;;;1.58;;
29906;SDS011;16776;50.958;10.994;2024-02-21T02:02:18;5.13;;;1.50;;
29906;SDS011;16776;50.958;10.994;2024-02-21T02:04:45;2.60;;;1.80;;
29906;SDS011;16776;50.958;10.994;2024-02-21T02:07:12;3.95;;;1.45;;
29906;SDS011;16776;50.958;10.994;2024-02-21T02:09:40;4.88;;;1.40;;
29906;SDS011;16776;50.958;10.994;2024-02-21T02:12:06;3.53;;;1.52;;
29906;SDS011;16776;50.958;10.994;2024-02-21T02:14:33;1.50;;;1.20;;
29906;SDS011;16776;50.958;10.994;2024-02-21T02:17:00;2.38;;;1.20;;
29906;SDS011;16776;50.958;10.994;2024-02-21T02:19:26;5.07;;;1.30;;
29906;SDS011;16776;50.958;10.994;2024-02-21T02:21:54;1.65;;;1.33;;
29906;SDS011;16776;50.958;10.994;2024-02-21T02:24:27;3.20;;;1.35;;
29906;SDS011;16776;50.958;10.994;2024-02-21T02:26:54;3.33;;;1.10;;
29906;SDS011;16776;50.958;10.994;2024-02-21T02:29:20;3.25;;;1.27;;
29906;SDS011;16776;50.958;10.994;2024-02-21T02:31:48;3.13;;;1.05;;
29906;SDS011;16776;50.958;10.994;2024-02-21T02:34:15;3.65;;;1.10;;
29906;SDS011;16776;50.958;10.994;2024-02-21T02:36:41;2.40;;;1.08;;
29906;SDS011;16776;50.958;10.994;2024-02-21T02:39:08;1.48;;;1.02;;
29906;SDS011;16776;50.958;10.994;2024-02-21T02:41:36;2.47;;;1.23;;
29906;SDS011;16776;50.958;10.994;2024-02-21T02:44:03;2.28;;;1.17;;
29906;SDS011;16776;50.958;10.994;2024-02-21T02:46:29;3.17;;;1.42;;
29906;SDS011;16776;50.958;10.994;2024-02-21T02:48:56;2.72;;;1.33;;
29906;SDS011;16776;50.958;10.994;2024-02-21T02:51:22;3.60;;;1.40;;
29906;SDS011;16776;50.958;10.994;2024-02-21T02:53:49;3.58;;;1.77;;
29906;SDS011;16776;50.958;10.994;2024-02-21T02:56:15;2.60;;;1.48;;
29906;SDS011;16776;50.958;10.994;2024-02-21T02:58:43;4.55;;;1.83;;
29906;SDS011;16776;50.958;10.994;2024-02-21T03:01:10;4.57;;;1.55;;
29906;SDS011;16776;50.958;10.994;2024-02-21T03:03:37;5.38;;;1.60;;
29906;SDS011;16776;50.958;10.994;2024-02-21T03:06:03;3.58;;;1.63;;
29906;SDS011;16776;50.958;10.994;2024-02-21T03:08:30;7.30;;;1.88;;
29906;SDS011;16776;50.958;10.994;2024-02-21T03:10:57;2.90;;;1.70;;
29906;SDS011;16776;50.958;10.994;2024-02-21T03:13:24;2.38;;;1.60;;
29906;SDS011;16776;50.958;10.994;2024-02-21T03:15:52;2.78;;;1.52;;
29906;SDS011;16776;50.958;10.994;2024-02-21T03:18:19;3.00;;;1.50;;
29906;SDS011;16776;50.958;10.994;2024-02-21T03:20:45;3.85;;;1.40;;
29906;SDS011;16776;50.958;10.994;2024-02-21T03:23:12;5.60;;;1.63;;
29906;SDS011;16776;50.958;10.994;2024-02-21T03:25:38;4.18;;;1.80;;
29906;SDS011;16776;50.958;10.994;2024-02-21T03:28:05;6.10;;;2.38;;
29906;SDS011;16776;50.958;10.994;2024-02-21T03:30:31;5.70;;;1.98;;
29906;SDS011;16776;50.958;10.994;2024-02-21T03:33:00;2.00;;;1.55;;
29906;SDS011;16776;50.958;10.994;2024-02-21T03:35:27;3.38;;;1.50;;
29906;SDS011;16776;50.958;10.994;2024-02-21T03:37:53;4.07;;;1.80;;
29906;SDS011;16776;50.958;10.994;2024-02-21T03:40:20;3.40;;;1.95;;
29906;SDS011;16776;50.958;10.994;2024-02-21T03:42:47;3.33;;;1.85;;
29906;SDS011;16776;50.958;10.994;2024-02-21T03:45:13;3.50;;;1.90;;
29906;SDS011;16776;50.958;10.994;2024-02-21T03:47:40;6.30;;;2.15;;
29906;SDS011;16776;50.958;10.994;2024-02-21T03:50:08;4.25;;;1.70;;
29906;SDS011;16776;50.958;10.994;2024-02-21T03:52:35;4.80;;;1.92;;
29906;SDS011;16776;50.958;10.994;2024-02-21T03:55:01;7.03;;;2.20;;
29906;SDS011;16776;50.958;10.994;2024-02-21T03:57:28;6.25;;;2.00;;
29906;SDS011;16776;50.958;10.994;2024-02-21T03:59:55;5.55;;;2.40;;
29906;SDS011;16776;50.958;10.994;2024-02-21T04:02:21;4.80;;;1.98;;
29906;SDS011;16776;50.958;10.994;2024-02-21T04:04:48;4.38;;;2.15;;
29906;SDS011;16776;50.958;10.994;2024-02-21T04:07:16;2.85;;;2.00;;
29906;SDS011;16776;50.958;10.994;2024-02-21T04:09:42;2.58;;;1.75;;
29906;SDS011;16776;50.958;10.994;2024-02-21T04:12:09;3.25;;;2.28;;
29906;SDS011;16776;50.958;10.994;2024-02-21T04:14:35;4.93;;;2.20;;
29906;SDS011;16776;50.958;10.994;2024-02-21T04:17:02;3.33;;;1.90;;
29906;SDS011;16776;50.958;10.994;2024-02-21T04:19:30;3.72;;;1.58;;
29906;SDS011;16776;50.958;10.994;2024-02-21T04:21:57;5.20;;;2.13;;
29906;SDS011;16776;50.958;10.994;2024-02-21T04:24:25;2.53;;;1.50;;
29906;SDS011;16776;50.958;10.994;2024-02-21T04:26:51;2.50;;;1.38;;
29906;SDS011;16776;50.958;10.994;2024-02-21T04:29:18;1.55;;;1.30;;
29906;SDS011;16776;50.958;10.994;2024-02-21T04:31:44;1.92;;;1.13;;
29906;SDS011;16776;50.958;10.994;2024-02-21T04:34:11;3.33;;;1.60;;
29906;SDS011;16776;50.958;10.994;2024-02-21T04:36:37;1.70;;;1.08;;
29906;SDS011;16776;50.958;10.994;2024-02-21T04:39:04;3.15;;;1.35;;
29906;SDS011;16776;50.958;10.994;2024-02-21T04:41:32;2.95;;;1.20;;
29906;SDS011;16776;50.958;10.994;2024-02-21T04:43:58;1.85;;;1.38;;
29906;SDS011;16776;50.958;10.994;2024-02-21T04:46:25;1.35;;;1.10;;
29906;SDS011;16776;50.958;10.994;2024-02-21T04:48:51;1.80;;;1.17;;
29906;SDS011;16776;50.958;10.994;2024-02-21T04:51:18;1.75;;;1.00;;
29906;SDS011;16776;50.958;10.994;2024-02-21T04:53:44;4.32;;;1.80;;
29906;SDS011;16776;50.958;10.994;2024-02-21T04:56:11;2.35;;;1.30;;
29906;SDS011;16776;50.958;10.994;2024-02-21T04:58:39;2.38;;;1.33;;
29906;SDS011;16776;50.958;10.994;2024-02-21T05:01:06;1.92;;;1.38;;
29906;SDS011;16776;50.958;10.994;2024-02-21T05:03:33;2.60;;;1.38;;
29906;SDS011;16776;50.958;10.994;2024-02-21T05:05:59;3.58;;;1.73;;
29906;SDS011;16776;50.958;10.994;2024-02-21T05:08:26;3.70;;;1.60;;
29906;SDS011;16776;50.958;10.994;2024-02-21T05:10:53;3.10;;;1.30;;
29906;SDS011;16776;50.958;10.994;2024-02-21T05:13:19;2.63;;;1.30;;
29906;SDS011;16776;50.958;10.994;2024-02-21T05:15:47;2.65;;;1.90;;
29906;SDS011;16776;50.958;10.994;2024-02-21T05:18:14;2.15;;;1.63;;
29906;SDS011;16776;50.958;10.994;2024-02-21T05:20:41;3.78;;;2.28;;
29906;SDS011;16776;50.958;10.994;2024-02-21T05:23:07;3.67;;;1.65;;
29906;SDS011;16776;50.958;10.994;2024-02-21T05:25:34;3.83;;;1.98;;
29906;SDS011;16776;50.958;10.994;2024-02-21T05:28:00;4.25;;;1.48;;
29906;SDS011;16776;50.958;10.994;2024-02-21T05:30:28;2.88;;;1.20;;
29906;SDS011;16776;50.958;10.994;2024-02-21T05:32:56;2.38;;;1.15;;
29906;SDS011;16776;50.958;10.994;2024-02-21T05:35:25;2.15;;;1.58;;
29906;SDS011;16776;50.958;10.994;2024-02-21T05:37:52;2.72;;;1.50;;
29906;SDS011;16776;50.958;10.994;2024-02-21T05:40:19;3.83;;;1.75;;
29906;SDS011;16776;50.958;10.994;2024-02-21T05:42:45;2.92;;;1.25;;
29906;SDS011;16776;50.958;10.994;2024-02-21T05:45:12;3.78;;;1.42;;
29906;SDS011;16776;50.958;10.994;2024-02-21T05:47:40;3.85;;;1.60;;
29906;SDS011;16776;50.958;10.994;2024-02-21T05:50:09;4.13;;;1.23;;
29906;SDS011;16776;50.958;10.994;2024-02-21T05:52:36;2.08;;;1.30;;
29906;SDS011;16776;50.958;10.994;2024-02-21T05:55:03;2.65;;;1.30;;
29906;SDS011;16776;50.958;10.994;2024-02-21T05:57:30;4.25;;;1.33;;
29906;SDS011;16776;50.958;10.994;2024-02-21T05:59:56;3.47;;;1.63;;
29906;SDS011;16776;50.958;10.994;2024-02-21T06:02:23;2.70;;;1.13;;
29906;SDS011;16776;50.958;10.994;2024-02-21T06:04:49;2.95;;;1.50;;
29906;SDS011;16776;50.958;10.994;2024-02-21T06:07:17;2.55;;;1.33;;
29906;SDS011;16776;50.958;10.994;2024-02-21T06:09:44;3.53;;;1.30;;
29906;SDS011;16776;50.958;10.994;2024-02-21T06:12:10;3.15;;;1.40;;
29906;SDS011;16776;50.958;10.994;2024-02-21T06:14:37;4.32;;;1.48;;
29906;SDS011;16776;50.958;10.994;2024-02-21T06:17:03;2.60;;;1.80;;
29906;SDS011;16776;50.958;10.994;2024-02-21T06:19:30;4.05;;;1.63;;
29906;SDS011;16776;50.958;10.994;2024-02-21T06:21:56;2.47;;;1.33;;
29906;SDS011;16776;50.958;10.994;2024-02-21T06:24:24;2.10;;;1.30;;
29906;SDS011;16776;50.958;10.994;2024-02-21T06:26:51;4.30;;;1.55;;
29906;SDS011;16776;50.958;10.994;2024-02-21T06:29:17;2.15;;;1.73;;
29906;SDS011;16776;50.958;10.994;2024-02-21T06:31:44;5.05;;;1.88;;
29906;SDS011;16776;50.958;10.994;2024-02-21T06:34:11;4.20;;;2.15;;
29906;SDS011;16776;50.958;10.994;2024-02-21T06:36:37;3.58;;;2.05;;
29906;SDS011;16776;50.958;10.994;2024-02-21T06:39:04;5.18;;;2.05;;
29906;SDS011;16776;50.958;10.994;2024-02-21T06:41:33;6.80;;;2.17;;
29906;SDS011;16776;50.958;10.994;2024-02-21T06:44:00;4.80;;;2.05;;
29906;SDS011;16776;50.958;10.994;2024-02-21T06:46:28;3.55;;;2.22;;
29906;SDS011;16776;50.958;10.994;2024-02-21T06:48:55;5.18;;;1.90;;
29906;SDS011;16776;50.958;10.994;2024-02-21T06:51:22;3.53;;;2.10;;
29906;SDS011;16776;50.958;10.994;2024-02-21T06:53:49;4.05;;;2.28;;
29906;SDS011;16776;50.958;10.994;2024-02-21T06:56:15;2.70;;;1.80;;
29906;SDS011;16776;50.958;10.994;2024-02-21T06:58:43;5.13;;;1.80;;
29906;SDS011;16776;50.958;10.994;2024-02-21T07:01:10;4.28;;;1.90;;
29906;SDS011;16776;50.958;10.994;2024-02-21T07:03:37;5.05;;;1.83;;
29906;SDS011;16776;50.958;10.994;2024-02-21T07:06:04;5.15;;;2.08;;
29906;SDS011;16776;50.958;10.994;2024-02-21T07:08:30;3.25;;;1.70;;
29906;SDS011;16776;50.958;10.994;2024-02-21T07:10:57;5.32;;;2.05;;
29906;SDS011;16776;50.958;10.994;2024-02-21T07:13:23;4.45;;;1.58;;
29906;SDS011;16776;50.958;10.994;2024-02-21T07:15:51;4.60;;;1.98;;
29906;SDS011;16776;50.958;10.994;2024-02-21T07:18:18;4.68;;;2.40;;
29906;SDS011;16776;50.958;10.994;2024-02-21T07:20:44;3.65;;;1.60;;
29906;SDS011;16776;50.958;10.994;2024-02-21T07:23:11;2.72;;;1.70;;
29906;SDS011;16776;50.958;10.994;2024-02-21T07:25:38;4.35;;;1.77;;
29906;SDS011;16776;50.958;10.994;2024-02-21T07:28:05;2.47;;;1.40;;
29906;SDS011;16776;50.958;10.994;2024-02-21T07:30:34;2.30;;;1.60;;
29906;SDS011;16776;50.958;10.994;2024-02-21T07:33:02;2.47;;;1.30;;
29906;SDS011;16776;50.958;10.994;2024-02-21T07:35:29;1.77;;;1.50;;
29906;SDS011;16776;50.958;10.994;2024-02-21T07:37:55;3.08;;;1.63;;
29906;SDS011;16776;50.958;10.994;2024-02-21T07:40:22;4.13;;;1.92;;
29906;SDS011;16776;50.958;10.994;2024-02-21T07:42:49;2.40;;;1.48;;
29906;SDS011;16776;50.958;10.994;2024-02-21T07:45:15;2.38;;;1.50;;
29906;SDS011;16776;50.958;10.994;2024-02-21T07:47:43;3.28;;;1.70;;
29906;SDS011;16776;50.958;10.994;2024-02-21T07:50:11;2.17;;;1.42;;
29906;SDS011;16776;50.958;10.994;2024-02-21T07:52:37;3.15;;;1.55;;
29906;SDS011;16776;50.958;10.994;2024-02-21T07:55:04;1.45;;;1.13;;
29906;SDS011;16776;50.958;10.994;2024-02-21T07:57:31;1.80;;;1.35;;
29906;SDS011;16776;50.958;10.994;2024-02-21T07:59:58;2.15;;;1.35;;
29906;SDS011;16776;50.958;10.994;2024-02-21T08:02:24;4.60;;;2.10;;
29906;SDS011;16776;50.958;10.994;2024-02-21T08:04:51;1.30;;;1.00;;
29906;SDS011;16776;50.958;10.994;2024-02-21T08:07:18;1.73;;;0.93;;
29906;SDS011;16776;50.958;10.994;2024-02-21T08:09:45;1.58;;;1.10;;
29906;SDS011;16776;50.958;10.994;2024-02-21T08:12:12;1.88;;;1.10;;
29906;SDS011;16776;50.958;10.994;2024-02-21T08:14:38;3.70;;;1.80;;
29906;SDS011;16776;50.958;10.994;2024-02-21T08:17:05;2.40;;;1.30;;
29906;SDS011;16776;50.958;10.994;2024-02-21T08:19:31;2.42;;;1.35;;
29906;SDS011;16776;50.958;10.994;2024-02-21T08:21:58;3.60;;;1.38;;
29906;SDS011;16776;50.958;10.994;2024-02-21T08:24:26;1.90;;;1.30;;
29906;SDS011;16776;50.958;10.994;2024-02-21T08:26:53;4.43;;;2.03;;
29906;SDS011;16776;50.958;10.994;2024-02-21T08:29:19;2.63;;;1.42;;
29906;SDS011;16776;50.958;10.994;2024-02-21T08:31:46;2.53;;;1.60;;
29906;SDS011;16776;50.958;10.994;2024-02-21T08:34:12;4.07;;;2.15;;
29906;SDS011;16776;50.958;10.994;2024-02-21T08:36:39;3.60;;;1.83;;
29906;SDS011;16776;50.958;10.994;2024-02-21T08:39:05;3.83;;;2.00;;
29906;SDS011;16776;50.958;10.994;2024-02-21T08:41:34;2.33;;;1.92;;
29906;SDS011;16776;50.958;10.994;2024-02-21T08:44:00;3.65;;;2.03;;
29906;SDS011;16776;50.958;10.994;2024-02-21T08:46:28;5.95;;;2.05;;
29906;SDS011;16776;50.958;10.994;2024-02-21T08:48:54;2.75;;;1.90;;
29906;SDS011;16776;50.958;10.994;2024-02-21T08:51:21;4.32;;;2.10;;
29906;SDS011;16776;50.958;10.994;2024-02-21T08:53:48;3.63;;;1.67;;
29906;SDS011;16776;50.958;10.994;2024-02-21T08:56:15;3.70;;;1.40;;
29906;SDS011;16776;50.958;10.994;2024-02-21T08:58:44;2.67;;;1.85;;
29906;SDS011;16776;50.958;10.994;2024-02-21T09:01:10;2.05;;;1.60;;
29906;SDS011;16776;50.958;10.994;2024-02-21T09:03:37;2.95;;;1.95;;
29906;SDS011;16776;50.958;10.994;2024-02-21T09:06:04;3.15;;;1.52;;
29906;SDS011;16776;50.958;10.994;2024-02-21T09:08:31;3.28;;;1.50;;
29906;SDS011;16776;50.958;10.994;2024-02-21T09:10:59;2.75;;;1.30;;
29906;SDS011;16776;50.958;10.994;2024-02-21T09:13:26;1.80;;;1.23;;
29906;SDS011;16776;50.958;10.994;2024-02-21T09:15:54;1.70;;;1.20;;
29906;SDS011;16776;50.958;10.994;2024-02-21T09:18:20;2.92;;;1.70;;
29906;SDS011;16776;50.958;10.994;2024-02-21T09:20:47;2.95;;;2.00;;
29906;SDS011;16776;50.958;10.994;2024-02-21T09:23:13;1.77;;;1.23;;
29906;SDS011;16776;50.958;10.994;2024-02-21T09:25:40;4.90;;;1.73;;
29906;SDS011;16776;50.958;10.994;2024-02-21T09:28:07;3.58;;;1.55;;
29906;SDS011;16776;50.958;10.994;2024-02-21T09:30:34;2.45;;;1.40;;
29906;SDS011;16776;50.958;10.994;2024-02-21T09:33:02;1.90;;;1.58;;
29906;SDS011;16776;50.958;10.994;2024-02-21T09:35:30;1.20;;;1.10;;
29906;SDS011;16776;50.958;10.994;2024-02-21T09:37:58;1.35;;;1.17;;
29906;SDS011;16776;50.958;10.994;2024-02-21T09:40:25;1.73;;;1.33;;
29906;SDS011;16776;50.958;10.994;2024-02-21T09:42:54;1.85;;;1.50;;
29906;SDS011;16776;50.958;10.994;2024-02-21T09:45:31;3.38;;;1.20;;
29906;SDS011;16776;50.958;10.994;2024-02-21T09:48:05;3.03;;;1.42;;
29906;SDS011;16776;50.958;10.994;2024-02-21T09:50:44;2.58;;;1.35;;
29906;SDS011;16776;50.958;10.994;2024-02-21T09:53:13;3.60;;;1.75;;
29906;SDS011;16776;50.958;10.994;2024-02-21T09:55:41;2.38;;;1.60;;
29906;SDS011;16776;50.958;10.994;2024-02-21T09:58:09;2.55;;;1.27;;
29906;SDS011;16776;50.958;10.994;2024-02-21T10:00:37;1.55;;;1.30;;
29906;SDS011;16776;50.958;10.994;2024-02-21T10:03:05;2.50;;;1.25;;
29906;SDS011;16776;50.958;10.994;2024-02-21T10:05:35;1.45;;;1.27;;
29906;SDS011;16776;50.958;10.994;2024-02-21T10:08:02;2.70;;;1.33;;
29906;SDS011;16776;50.958;10.994;2024-02-21T10:10:29;2.53;;;1.50;;
29906;SDS011;16776;50.958;10.994;2024-02-21T10:12:56;3.50;;;1.77;;
29906;SDS011;16776;50.958;10.994;2024-02-21T10:15:24;2.10;;;1.40;;
29906;SDS011;16776;50.958;10.994;2024-02-21T10:17:58;2.90;;;1.65;;
29906;SDS011;16776;50.958;10.994;2024-02-21T10:20:26;2.65;;;1.67;;
29906;SDS011;16776;50.958;10.994;2024-02-21T10:23:00;4.15;;;2.20;;
29906;SDS011;16776;50.958;10.994;2024-02-21T10:25:28;2.70;;;1.70;;
29906;SDS011;16776;50.958;10.994;2024-02-21T10:27:54;2.00;;;1.50;;
29906;SDS011;16776;50.958;10.994;2024-02-21T10:30:21;3.45;;;1.67;;
29906;SDS011;16776;50.958;10.994;2024-02-21T10:32:49;3.40;;;1.40;;
29906;SDS011;16776;50.958;10.994;2024-02-21T10:35:24;1.67;;;1.35;;
29906;SDS011;16776;50.958;10.994;2024-02-21T10:37:53;1.85;;;1.35;;
29906;SDS011;16776;50.958;10.994;2024-02-21T10:40:21;2.47;;;1.77;;
29906;SDS011;16776;50.958;10.994;2024-02-21T10:42:48;3.97;;;1.45;;
29906;SDS011;16776;50.958;10.994;2024-02-21T10:45:20;2.30;;;1.13;;
29906;SDS011;16776;50.958;10.994;2024-02-21T10:47:48;2.40;;;1.33;;
29906;SDS011;16776;50.958;10.994;2024-02-21T10:50:21;3.35;;;1.80;;
29906;SDS011;16776;50.958;10.994;2024-02-21T10:52:55;2.17;;;1.40;;
29906;SDS011;16776;50.958;10.994;2024-02-21T10:55:29;3.53;;;1.63;;
29906;SDS011;16776;50.958;10.994;2024-02-21T10:58:02;1.85;;;1.27;;
29906;SDS011;16776;50.958;10.994;2024-02-21T11:00:30;3.47;;;1.42;;
29906;SDS011;16776;50.958;10.994;2024-02-21T11:02:57;2.50;;;1.27;;
29906;SDS011;16776;50.958;10.994;2024-02-21T11:05:25;2.88;;;1.33;;
29906;SDS011;16776;50.958;10.994;2024-02-21T11:07:54;4.18;;;1.42;;
29906;SDS011;16776;50.958;10.994;2024-02-21T11:10:22;2.70;;;1.40;;
29906;SDS011;16776;50.958;10.994;2024-02-21T11:12:52;2.15;;;1.30;;
29906;SDS011;16776;50.958;10.994;2024-02-21T11:15:19;2.45;;;1.13;;
29906;SDS011;16776;50.958;10.994;2024-02-21T11:17:54;2.55;;;1.50;;
29906;SDS011;16776;50.958;10.994;2024-02-21T11:20:21;2.03;;;1.13;;
29906;SDS011;16776;50.958;10.994;2024-02-21T11:23:00;2.28;;;1.58;;
29906;SDS011;16776;50.958;10.994;2024-02-21T11:25:27;3.78;;;2.08;;
29906;SDS011;16776;50.958;10.994;2024-02-21T11:27:58;3.50;;;1.63;;
29906;SDS011;16776;50.958;10.994;2024-02-21T11:30:26;3.90;;;1.45;;
29906;SDS011;16776;50.958;10.994;2024-02-21T11:32:58;2.72;;;1.60;;
29906;SDS011;16776;50.958;10.994;2024-02-21T11:35:27;4.07;;;1.50;;
29906;SDS011;16776;50.958;10.994;2024-02-21T11:37:57;2.33;;;1.40;;
29906;SDS011;16776;50.958;10.994;2024-02-21T11:40:38;3.60;;;1.40;;
29906;SDS011;16776;50.958;10.994;2024-02-21T11:43:05;2.03;;;1.27;;
29906;SDS011;16776;50.958;10.994;2024-02-21T11:45:32;1.40;;;0.90;;
29906;SDS011;16776;50.958;10.994;2024-02-21T11:47:58;2.63;;;1.17;;
29906;SDS011;16776;50.958;10.994;2024-02-21T11:50:28;1.52;;;0.90;;
29906;SDS011;16776;50.958;10.994;2024-02-21T11:52:55;2.67;;;1.08;;
29906;SDS011;16776;50.958;10.994;2024-02-21T11:55:23;3.50;;;1.55;;
29906;SDS011;16776;50.958;10.994;2024-02-21T11:57:50;2.25;;;0.98;;
29906;SDS011;16776;50.958;10.994;2024-02-21T12:00:17;1.40;;;0.85;;
29906;SDS011;16776;50.958;10.994;2024-02-21T12:02:45;1.60;;;1.00;;
29906;SDS011;16776;50.958;10.994;2024-02-21T12:05:12;2.05;;;0.98;;
29906;SDS011;16776;50.958;10.994;2024-02-21T12:07:39;2.10;;;1.35;;
29906;SDS011;16776;50.958;10.994;2024-02-21T12:10:07;2.55;;;0.90;;
29906;SDS011;16776;50.958;10.994;2024-02-21T12:12:37;1.83;;;0.90;;
29906;SDS011;16776;50.958;10.994;2024-02-21T12:15:04;3.55;;;1.65;;
29906;SDS011;16776;50.958;10.994;2024-02-21T12:17:32;2.08;;;1.20;;
29906;SDS011;16776;50.958;10.994;2024-02-21T12:19:59;2.10;;;1.05;;
29906;SDS011;16776;50.958;10.994;2024-02-21T12:22:26;2.60;;;1.08;;
29906;SDS011;16776;50.958;10.994;2024-02-21T12:24:53;1.95;;;0.88;;
29906;SDS011;16776;50.958;10.994;2024-02-21T12:27:20;3.60;;;1.02;;
29906;SDS011;16776;50.958;10.994;2024-02-21T12:29:48;1.98;;;0.85;;
29906;SDS011;16776;50.958;10.994;2024-02-21T12:32:15;2.42;;;1.10;;
29906;SDS011;16776;50.958;10.994;2024-02-21T12:34:41;1.98;;;0.93;;
29906;SDS011;16776;50.958;10.994;2024-02-21T12:37:08;2.75;;;1.00;;
29906;SDS011;16776;50.958;10.994;2024-02-21T12:39:34;2.17;;;0.93;;
29906;SDS011;16776;50.958;10.994;2024-02-21T12:42:03;2.92;;;1.33;;
29906;SDS011;16776;50.958;10.994;2024-02-21T12:44:30;2.28;;;1.30;;
29906;SDS011;16776;50.958;10.994;2024-02-21T12:46:58;2.22;;;0.90;;
29906;SDS011;16776;50.958;10.994;2024-02-21T12:49:25;2.83;;;1.00;;
29906;SDS011;16776;50.958;10.994;2024-02-21T12:51:54;2.95;;;1.40;;
29906;SDS011;16776;50.958;10.994;2024-02-21T12:54:21;3.60;;;1.00;;
29906;SDS011;16776;50.958;10.994;2024-02-21T12:56:48;2.08;;;1.10;;
29906;SDS011;16776;50.958;10.994;2024-02-21T12:59:15;1.90;;;1.05;;
29906;SDS011;16776;50.958;10.994;2024-02-21T13:01:42;1.33;;;0.85;;
29906;SDS011;16776;50.958;10.994;2024-02-21T13:04:09;1.85;;;1.20;;
29906;SDS011;16776;50.958;10.994;2024-02-21T13:06:36;2.05;;;1.45;;
29906;SDS011;16776;50.958;10.994;2024-02-21T13:09:03;2.95;;;0.82;;
29906;SDS011;16776;50.958;10.994;2024-02-21T13:11:33;2.05;;;1.08;;
29906;SDS011;16776;50.958;10.994;2024-02-21T13:14:00;1.25;;;1.00;;
29906;SDS011;16776;50.958;10.994;2024-02-21T13:16:27;1.67;;;0.90;;
29906;SDS011;16776;50.958;10.994;2024-02-21T13:18:53;2.55;;;0.90;;
29906;SDS011;16776;50.958;10.994;2024-02-21T13:21:21;2.25;;;1.27;;
29906;SDS011;16776;50.958;10.994;2024-02-21T13:23:48;2.10;;;1.05;;
29906;SDS011;16776;50.958;10.994;2024-02-21T13:26:14;2.38;;;1.23;;
29906;SDS011;16776;50.958;10.994;2024-02-21T13:28:41;1.63;;;0.90;;
29906;SDS011;16776;50.958;10.994;2024-02-21T13:31:09;2.30;;;1.20;;
29906;SDS011;16776;50.958;10.994;2024-02-21T13:33:36;1.42;;;1.10;;
29906;SDS011;16776;50.958;10.994;2024-02-21T13:36:03;1.83;;;0.70;;
29906;SDS011;16776;50.958;10.994;2024-02-21T13:38:32;1.45;;;0.77;;
29906;SDS011;16776;50.958;10.994;2024-02-21T13:40:58;2.17;;;0.95;;
29906;SDS011;16776;50.958;10.994;2024-02-21T13:43:26;3.20;;;0.93;;
29906;SDS011;16776;50.958;10.994;2024-02-21T13:45:55;2.70;;;1.33;;
29906;SDS011;16776;50.958;10.994;2024-02-21T13:48:23;1.58;;;0.90;;
29906;SDS011;16776;50.958;10.994;2024-02-21T13:50:49;0.70;;;0.68;;
29906;SDS011;16776;50.958;10.994;2024-02-21T13:53:16;1.65;;;0.93;;
29906;SDS011;16776;50.958;10.994;2024-02-21T13:55:44;3.33;;;1.02;;
29906;SDS011;16776;50.958;10.994;2024-02-21T13:58:11;1.55;;;1.08;;
29906;SDS011;16776;50.958;10.994;2024-02-21T14:00:38;2.35;;;0.90;;
29906;SDS011;16776;50.958;10.994;2024-02-21T14:03:04;2.20;;;1.27;;
29906;SDS011;16776;50.958;10.994;2024-02-21T14:05:31;3.10;;;0.98;;
29906;SDS011;16776;50.958;10.994;2024-02-21T14:07:58;4.88;;;1.35;;
29906;SDS011;16776;50.958;10.994;2024-02-21T14:10:24;1.92;;;0.88;;
29906;SDS011;16776;50.958;10.994;2024-02-21T14:12:52;6.50;;;1.20;;
29906;SDS011;16776;50.958;10.994;2024-02-21T14:15:20;2.28;;;0.93;;
29906;SDS011;16776;50.958;10.994;2024-02-21T14:17:46;2.35;;;1.30;;
29906;SDS011;16776;50.958;10.994;2024-02-21T14:20:13;3.95;;;1.15;;
29906;SDS011;16776;50.958;10.994;2024-02-21T14:22:40;3.03;;;1.20;;
29906;SDS011;16776;50.958;10.994;2024-02-21T14:25:07;1.92;;;1.00;;
29906;SDS011;16776;50.958;10.994;2024-02-21T14:27:34;2.35;;;1.05;;
29906;SDS011;16776;50.958;10.994;2024-02-21T14:30:03;1.33;;;0.63;;
29906;SDS011;16776;50.958;10.994;2024-02-21T14:32:30;3.08;;;1.42;;
29906;SDS011;16776;50.958;10.994;2024-02-21T14:34:57;3.88;;;1.00;;